createdAt,value
2022-08-17T00:00:44.113Z,20.33
2022-08-17T00:03:18.309Z,20.30
2022-08-17T00:05:50.920Z,20.26
2022-08-17T00:08:42.005Z,20.23
2022-08-17T00:11:17.362Z,20.20
2022-08-17T00:13:51.530Z,20.20
2022-08-17T00:16:55.313Z,20.19
2022-08-17T00:19:23.067Z,20.17
2022-08-17T00:22:31.864Z,20.16
2022-08-17T00:24:44.759Z,20.16
2022-08-17T00:27:13.253Z,20.16
2022-08-17T00:29:42.257Z,20.16
2022-08-17T00:33:14.350Z,20.16
2022-08-17T00:34:59.329Z,20.13
2022-08-17T00:37:27.669Z,20.12
2022-08-17T00:39:56.199Z,20.11
2022-08-17T00:42:28.857Z,20.09
2022-08-17T00:44:59.356Z,20.08
2022-08-17T00:47:30.150Z,20.05
2022-08-17T00:49:58.784Z,20.02
2022-08-17T00:52:35.422Z,20.00
2022-08-17T00:55:06.179Z,19.96
2022-08-17T00:57:45.053Z,19.94
2022-08-17T01:00:21.399Z,19.90
2022-08-17T01:02:49.892Z,19.91
2022-08-17T01:05:25.449Z,19.88
2022-08-17T01:07:55.159Z,19.88
2022-08-17T01:11:00.083Z,19.88
2022-08-17T01:13:20.910Z,19.85
2022-08-17T01:15:57.833Z,19.85
2022-08-17T01:18:27.410Z,19.85
2022-08-17T01:21:01.839Z,19.86
2022-08-17T01:23:30.946Z,19.85
2022-08-17T01:26:02.772Z,19.84
2022-08-17T01:28:54.437Z,19.80
2022-08-17T01:31:25.463Z,19.78
2022-08-17T01:33:54.569Z,19.78
2022-08-17T01:36:23.821Z,19.76
2022-08-17T01:38:52.200Z,19.74
2022-08-17T01:41:22.708Z,19.73
2022-08-17T01:43:59.525Z,19.68
2022-08-17T01:46:32.153Z,19.67
2022-08-17T01:49:01.660Z,19.66
2022-08-17T01:51:32.913Z,19.62
2022-08-17T01:54:08.523Z,19.57
2022-08-17T01:56:43.825Z,19.56
2022-08-17T01:59:18.366Z,19.56
2022-08-17T02:01:47.082Z,19.53
2022-08-17T02:04:15.639Z,19.54
2022-08-17T02:06:53.553Z,19.54
2022-08-17T02:09:29.809Z,19.54
2022-08-17T02:12:37.733Z,19.55
2022-08-17T02:14:48.981Z,19.54
2022-08-17T02:17:17.861Z,19.53
2022-08-17T02:19:46.237Z,19.52
2022-08-17T02:22:18.269Z,19.47
2022-08-17T02:25:00.419Z,19.45
2022-08-17T02:27:30.957Z,19.45
2022-08-17T02:29:59.334Z,19.42
2022-08-17T02:32:28.755Z,19.42
2022-08-17T02:34:58.504Z,19.41
2022-08-17T02:37:28.977Z,19.39
2022-08-17T02:39:58.556Z,19.37
2022-08-17T02:42:33.923Z,19.35
2022-08-17T02:45:05.252Z,19.35
2022-08-17T02:47:34.324Z,19.37
2022-08-17T02:50:04.002Z,19.38
2022-08-17T02:52:41.954Z,19.34
2022-08-17T02:55:25.081Z,19.33
2022-08-17T02:57:53.951Z,19.31
2022-08-17T03:00:25.876Z,19.29
2022-08-17T03:02:56.514Z,19.31
2022-08-17T03:05:28.245Z,19.30
2022-08-17T03:07:57.429Z,19.28
2022-08-17T03:10:26.908Z,19.29
2022-08-17T03:12:55.722Z,19.30
2022-08-17T03:15:27.553Z,19.31
2022-08-17T03:17:57.216Z,19.31
2022-08-17T03:20:27.317Z,19.30
2022-08-17T03:23:02.009Z,19.28
2022-08-17T03:25:35.952Z,19.25
2022-08-17T03:28:06.823Z,19.25
2022-08-17T03:30:36.605Z,19.24
2022-08-17T03:33:07.295Z,19.24
2022-08-17T03:35:37.638Z,19.24
2022-08-17T03:38:07.537Z,19.22
2022-08-17T03:40:56.568Z,19.23
2022-08-17T03:43:25.503Z,19.23
2022-08-17T03:46:28.453Z,19.22
2022-08-17T03:49:22.923Z,19.21
2022-08-17T03:52:10.316Z,19.20
2022-08-17T03:54:58.111Z,19.19
2022-08-17T03:57:26.870Z,19.18
2022-08-17T03:59:56.044Z,19.18
2022-08-17T04:02:29.458Z,19.16
2022-08-17T04:04:58.423Z,19.15
2022-08-17T04:07:30.006Z,19.17
2022-08-17T04:09:59.530Z,19.18
2022-08-17T04:12:31.141Z,19.18
2022-08-17T04:14:59.873Z,19.19
2022-08-17T04:17:31.197Z,19.18
2022-08-17T04:19:59.578Z,19.17
2022-08-17T04:22:30.152Z,19.17
2022-08-17T04:25:24.206Z,19.15
2022-08-17T04:27:52.350Z,19.13
2022-08-17T04:30:20.923Z,19.11
2022-08-17T04:33:03.746Z,19.08
2022-08-17T04:35:48.253Z,19.05
2022-08-17T04:38:20.198Z,19.02
2022-08-17T04:41:07.979Z,18.98
2022-08-17T04:43:39.785Z,18.96
2022-08-17T04:46:11.167Z,18.96
2022-08-17T04:48:43.148Z,18.96
2022-08-17T04:51:16.883Z,18.95
2022-08-17T04:53:54.489Z,18.96
2022-08-17T04:56:25.935Z,18.99
2022-08-17T04:58:58.145Z,19.01
2022-08-17T05:01:29.245Z,19.02
2022-08-17T05:03:59.855Z,19.03
2022-08-17T05:06:30.753Z,19.05
2022-08-17T05:08:59.946Z,19.05
2022-08-17T05:11:30.089Z,19.08
2022-08-17T05:13:58.907Z,19.11
2022-08-17T05:16:28.698Z,19.11
2022-08-17T05:18:58.648Z,19.15
2022-08-17T05:21:27.522Z,19.18
2022-08-17T05:23:58.563Z,19.20
2022-08-17T05:26:29.332Z,19.22
2022-08-17T05:29:03.001Z,19.23
2022-08-17T05:31:31.497Z,19.22
2022-08-17T05:34:02.281Z,19.23
2022-08-17T05:36:41.764Z,19.26
2022-08-17T05:39:16.277Z,19.28
2022-08-17T05:41:47.726Z,19.27
2022-08-17T05:44:17.145Z,19.29
2022-08-17T05:46:51.930Z,19.30
2022-08-17T05:49:27.685Z,19.32
2022-08-17T05:52:23.529Z,19.33
2022-08-17T05:55:32.774Z,19.35
2022-08-17T05:58:13.170Z,19.33
2022-08-17T06:01:03.219Z,19.33
2022-08-17T06:03:43.353Z,19.33
2022-08-17T06:06:31.319Z,19.34
2022-08-17T06:09:24.807Z,19.35
2022-08-17T06:12:21.453Z,19.35
2022-08-17T06:15:04.181Z,19.34
2022-08-17T06:17:33.942Z,19.34
2022-08-17T06:20:08.399Z,19.33
2022-08-17T06:22:44.742Z,19.35
2022-08-17T06:25:38.108Z,19.37
2022-08-17T06:28:14.231Z,19.40
2022-08-17T06:31:01.114Z,19.42
2022-08-17T06:33:36.880Z,19.42
2022-08-17T06:36:30.149Z,19.45
2022-08-17T06:39:31.497Z,19.45
2022-08-17T06:43:04.981Z,19.45
2022-08-17T06:45:20.285Z,19.44
2022-08-17T06:48:26.017Z,19.46
2022-08-17T06:51:00.025Z,19.49
2022-08-17T06:53:34.813Z,19.53
2022-08-17T06:56:13.566Z,19.57
2022-08-17T06:58:44.876Z,19.60
2022-08-17T07:01:24.895Z,19.59
2022-08-17T07:03:59.433Z,19.62
2022-08-17T07:06:38.487Z,19.63
2022-08-17T07:09:15.827Z,19.63
2022-08-17T07:11:52.903Z,19.64
2022-08-17T07:14:43.334Z,19.62
2022-08-17T07:17:15.657Z,19.60
2022-08-17T07:19:46.847Z,19.57
2022-08-17T07:22:59.557Z,19.57
2022-08-17T07:25:33.921Z,19.57
2022-08-17T07:28:07.437Z,19.59
2022-08-17T07:30:46.892Z,19.61
2022-08-17T07:33:20.493Z,19.62
2022-08-17T07:35:50.946Z,19.61
2022-08-17T07:38:33.311Z,19.61
2022-08-17T07:41:06.806Z,19.61
2022-08-17T07:43:41.187Z,19.64
2022-08-17T07:46:52.800Z,19.63
2022-08-17T07:49:31.690Z,19.61
2022-08-17T07:52:50.843Z,19.56
2022-08-17T07:55:35.009Z,19.48
2022-08-17T07:58:03.614Z,19.44
2022-08-17T08:00:33.662Z,19.40
2022-08-17T08:03:15.517Z,19.37
2022-08-17T08:06:00.794Z,19.33
2022-08-17T08:08:42.818Z,19.32
2022-08-17T08:11:27.963Z,19.33
2022-08-17T08:14:29.322Z,19.34
2022-08-17T08:17:05.872Z,19.37
2022-08-17T08:19:34.329Z,19.37
2022-08-17T08:22:11.197Z,19.39
2022-08-17T08:24:55.586Z,19.38
2022-08-17T08:27:27.286Z,19.39
2022-08-17T08:30:02.955Z,19.38
2022-08-17T08:32:50.302Z,19.41
2022-08-17T08:35:44.495Z,19.43
2022-08-17T08:38:44.346Z,19.48
2022-08-17T08:41:55.390Z,19.55
2022-08-17T08:45:00.282Z,19.61
2022-08-17T08:48:05.099Z,19.66
2022-08-17T08:50:37.911Z,19.74
2022-08-17T08:53:30.432Z,19.76
2022-08-17T08:56:16.565Z,19.79
2022-08-17T08:59:10.669Z,19.80
2022-08-17T09:01:41.917Z,19.84
2022-08-17T09:05:10.601Z,19.88
2022-08-17T09:07:42.364Z,19.94
2022-08-17T09:10:27.035Z,19.99
2022-08-17T09:13:22.121Z,20.03
2022-08-17T09:16:15.328Z,20.09
2022-08-17T09:19:01.393Z,20.12
2022-08-17T09:21:48.735Z,20.13
2022-08-17T09:24:28.488Z,20.16
2022-08-17T09:27:15.157Z,20.22
2022-08-17T09:29:54.324Z,20.32
2022-08-17T09:32:39.406Z,20.38
2022-08-17T09:35:20.748Z,20.48
2022-08-17T09:38:10.251Z,20.61
2022-08-17T09:41:01.643Z,20.80
2022-08-17T09:44:23.382Z,21.00
2022-08-17T09:47:10.344Z,21.17
2022-08-17T09:49:49.352Z,21.32
2022-08-17T09:52:24.963Z,21.51
2022-08-17T09:54:55.919Z,21.68
2022-08-17T09:57:59.034Z,21.78
2022-08-17T10:00:35.654Z,21.86
2022-08-17T10:05:59.903Z,21.98
2022-08-17T10:09:08.305Z,22.00
2022-08-17T10:12:02.466Z,21.97
2022-08-17T10:14:44.187Z,21.94
2022-08-17T10:17:13.841Z,21.88
2022-08-17T10:20:05.975Z,21.91
2022-08-17T10:23:07.629Z,21.89
2022-08-17T10:26:01.191Z,21.85
2022-08-17T10:28:39.062Z,21.87
2022-08-17T10:31:33.838Z,21.92
2022-08-17T10:34:42.028Z,22.05
2022-08-17T10:37:19.639Z,22.20
2022-08-17T10:40:12.111Z,22.36
2022-08-17T10:42:55.197Z,22.49
2022-08-17T10:45:35.009Z,22.58
2022-08-17T10:48:07.197Z,22.64
2022-08-17T10:50:56.183Z,22.68
2022-08-17T10:53:48.597Z,22.66
2022-08-17T10:56:23.490Z,22.58
2022-08-17T10:58:59.570Z,22.54
2022-08-17T11:01:49.520Z,22.58
2022-08-17T11:04:18.027Z,22.59
2022-08-17T11:07:16.436Z,22.57
2022-08-17T11:10:03.624Z,22.59
2022-08-17T11:12:38.089Z,22.58
2022-08-17T11:15:31.499Z,22.52
2022-08-17T11:18:12.157Z,22.51
2022-08-17T11:21:17.431Z,22.42
2022-08-17T11:23:45.681Z,22.42
2022-08-17T11:26:29.711Z,22.38
2022-08-17T11:29:05.189Z,22.35
2022-08-17T11:31:44.863Z,22.32
2022-08-17T11:34:26.237Z,22.32
2022-08-17T11:37:03.784Z,22.35
2022-08-17T11:40:06.935Z,22.38
2022-08-17T11:43:09.579Z,22.38
2022-08-17T11:45:53.736Z,22.38
2022-08-17T11:48:55.884Z,22.43
2022-08-17T11:51:55.811Z,22.47
2022-08-17T11:54:33.333Z,22.50
2022-08-17T11:57:25.790Z,22.62
2022-08-17T12:00:36.268Z,22.76
2022-08-17T12:03:34.560Z,22.96
2022-08-17T12:06:17.685Z,23.06
2022-08-17T12:08:55.212Z,23.17
2022-08-17T12:11:58.767Z,23.22
2022-08-17T12:14:45.492Z,23.22
2022-08-17T12:17:39.217Z,23.24
2022-08-17T12:20:32.422Z,23.20
2022-08-17T12:23:15.818Z,23.20
2022-08-17T12:26:17.574Z,23.20
2022-08-17T12:28:50.470Z,23.16
2022-08-17T12:31:27.192Z,23.13
2022-08-17T12:33:56.195Z,23.08
2022-08-17T12:36:28.247Z,23.00
2022-08-17T12:39:12.835Z,22.95
2022-08-17T12:41:50.349Z,22.90
2022-08-17T12:44:31.714Z,22.89
2022-08-17T12:47:04.549Z,22.91
2022-08-17T12:49:38.463Z,22.86
2022-08-17T12:52:19.919Z,22.82
2022-08-17T12:54:54.138Z,22.82
2022-08-17T12:57:25.949Z,22.86
2022-08-17T12:59:58.929Z,22.88
2022-08-17T13:02:32.810Z,22.89
2022-08-17T13:05:02.155Z,22.86
2022-08-17T13:07:42.604Z,22.87
2022-08-17T13:10:16.292Z,22.83
2022-08-17T13:12:44.724Z,22.81
2022-08-17T13:15:20.543Z,22.76
2022-08-17T13:17:59.497Z,22.73
2022-08-17T13:20:27.952Z,22.69
2022-08-17T13:22:59.844Z,22.69
2022-08-17T13:25:29.832Z,22.73
2022-08-17T13:27:58.803Z,22.73
2022-08-17T13:30:32.880Z,22.74
2022-08-17T13:33:04.705Z,22.77
2022-08-17T13:35:50.250Z,22.81
2022-08-17T13:38:41.365Z,22.83
2022-08-17T13:41:29.829Z,22.84
2022-08-17T13:43:58.093Z,22.82
2022-08-17T13:46:32.688Z,22.83
2022-08-17T13:49:12.227Z,22.81
2022-08-17T13:51:46.397Z,22.82
2022-08-17T13:54:27.085Z,22.81
2022-08-17T13:57:21.806Z,22.83
2022-08-17T13:59:58.170Z,22.86
2022-08-17T14:02:28.913Z,22.86
2022-08-17T14:04:58.987Z,22.89
2022-08-17T14:07:33.862Z,22.93
2022-08-17T14:10:29.865Z,23.00
2022-08-17T14:12:58.271Z,23.04
2022-08-17T14:15:54.912Z,23.10
2022-08-17T14:18:18.981Z,23.20
2022-08-17T14:21:08.748Z,23.34
2022-08-17T14:23:37.615Z,23.45
2022-08-17T14:26:06.008Z,23.50
2022-08-17T14:28:36.390Z,23.49
2022-08-17T14:31:08.417Z,23.42
2022-08-17T14:33:37.375Z,23.35
2022-08-17T14:36:09.801Z,23.29
2022-08-17T14:38:41.873Z,23.23
2022-08-17T14:41:11.185Z,23.19
2022-08-17T14:43:39.956Z,23.11
2022-08-17T14:46:08.271Z,23.04
2022-08-17T14:48:38.680Z,22.96
2022-08-17T14:51:07.209Z,22.87
2022-08-17T14:53:36.647Z,22.77
2022-08-17T14:56:08.968Z,22.68
2022-08-17T14:58:39.007Z,22.58
2022-08-17T15:01:12.484Z,22.50
2022-08-17T15:03:42.035Z,22.44
2022-08-17T15:06:14.650Z,22.34
2022-08-17T15:08:44.763Z,22.30
2022-08-17T15:11:14.758Z,22.26
2022-08-17T15:13:52.904Z,22.19
2022-08-17T15:16:22.291Z,22.16
2022-08-17T15:18:52.651Z,22.10
2022-08-17T15:21:22.297Z,22.06
2022-08-17T15:23:53.429Z,21.98
2022-08-17T15:26:26.209Z,21.91
2022-08-17T15:28:56.693Z,21.85
2022-08-17T15:31:31.970Z,21.82
2022-08-17T15:34:00.906Z,21.75
2022-08-17T15:36:29.254Z,21.74
2022-08-17T15:38:59.508Z,21.72
2022-08-17T15:41:28.405Z,21.70
2022-08-17T15:43:57.077Z,21.68
2022-08-17T15:46:26.302Z,21.67
2022-08-17T15:49:00.277Z,21.64
2022-08-17T15:51:34.972Z,21.60
2022-08-17T15:54:19.241Z,21.53
2022-08-17T15:56:50.989Z,21.47
2022-08-17T15:59:19.457Z,21.41
2022-08-17T16:03:15.302Z,21.39
2022-08-17T16:04:40.247Z,21.35
2022-08-17T16:07:13.444Z,21.31
2022-08-17T16:09:42.372Z,21.29
2022-08-17T16:12:14.373Z,21.29
2022-08-17T16:14:43.740Z,21.28
2022-08-17T16:17:40.080Z,21.23
2022-08-17T16:20:02.228Z,21.18
2022-08-17T16:22:39.390Z,21.16
2022-08-17T16:25:15.071Z,21.14
2022-08-17T16:27:44.390Z,21.10
2022-08-17T16:30:17.600Z,21.07
2022-08-17T16:32:47.412Z,20.94
2022-08-17T16:35:20.503Z,20.50
2022-08-17T16:37:49.006Z,20.13
2022-08-17T16:40:17.533Z,19.74
2022-08-17T16:42:48.481Z,19.41
2022-08-17T16:45:23.582Z,19.19
2022-08-17T16:47:55.163Z,19.02
2022-08-17T16:50:24.054Z,18.96
2022-08-17T16:52:52.666Z,18.91
2022-08-17T16:55:22.662Z,18.94
2022-08-17T16:57:51.061Z,18.89
2022-08-17T17:00:20.947Z,18.88
2022-08-17T17:02:49.770Z,18.92
2022-08-17T17:05:33.395Z,18.95
2022-08-17T17:08:09.348Z,18.97
2022-08-17T17:10:37.750Z,18.95
2022-08-17T17:13:16.909Z,18.91
2022-08-17T17:16:06.433Z,18.85
2022-08-17T17:19:35.115Z,18.82
2022-08-17T17:22:13.431Z,18.76
2022-08-17T17:24:50.384Z,18.72
2022-08-17T17:27:29.621Z,18.70
2022-08-17T17:30:03.971Z,18.67
2022-08-17T17:32:38.078Z,18.66
2022-08-17T17:35:38.017Z,18.63
2022-08-17T17:38:15.297Z,18.63
2022-08-17T17:40:50.942Z,18.66
2022-08-17T17:43:39.045Z,18.70
2022-08-17T17:46:27.895Z,18.73
2022-08-17T17:49:01.410Z,18.74
2022-08-17T17:52:06.302Z,18.72
2022-08-17T17:54:40.278Z,18.67
2022-08-17T17:57:37.211Z,18.64
2022-08-17T18:00:11.680Z,18.64
2022-08-17T18:03:05.138Z,18.64
2022-08-17T18:05:36.750Z,18.66
2022-08-17T18:08:11.913Z,18.68
2022-08-17T18:10:48.921Z,18.70
2022-08-17T18:13:29.702Z,18.74
2022-08-17T18:16:01.063Z,18.78
2022-08-17T18:18:38.259Z,18.80
2022-08-17T18:21:20.724Z,18.85
2022-08-17T18:24:00.985Z,18.88
2022-08-17T18:26:37.837Z,18.91
2022-08-17T18:29:28.087Z,18.93
2022-08-17T18:32:32.416Z,18.91
2022-08-17T18:35:27.829Z,18.91
2022-08-17T18:38:20.638Z,18.91
2022-08-17T18:41:21.840Z,18.91
2022-08-17T18:44:22.255Z,18.93
2022-08-17T18:47:28.630Z,18.98
2022-08-17T18:50:28.073Z,18.97
2022-08-17T18:53:30.346Z,18.95
2022-08-17T18:56:20.663Z,18.95
2022-08-17T18:59:00.680Z,18.94
2022-08-17T19:01:53.555Z,18.92
2022-08-17T19:04:36.589Z,18.82
2022-08-17T19:07:07.334Z,18.75
2022-08-17T19:09:42.758Z,18.70
2022-08-17T19:12:26.963Z,18.67
2022-08-17T19:14:58.513Z,18.61
2022-08-17T19:17:42.178Z,18.62
2022-08-17T19:20:14.546Z,18.62
2022-08-17T19:22:56.443Z,18.66
2022-08-17T19:25:30.670Z,18.72
2022-08-17T19:28:22.630Z,18.77
2022-08-17T19:30:57.737Z,18.82
2022-08-17T19:33:32.837Z,18.88
2022-08-17T19:36:11.876Z,18.87
2022-08-17T19:39:04.574Z,18.87
2022-08-17T19:42:05.538Z,18.84
2022-08-17T19:44:48.808Z,18.82
2022-08-17T19:47:54.753Z,18.79
2022-08-17T19:50:39.217Z,18.80
2022-08-17T19:54:01.705Z,18.79
2022-08-17T19:56:44.691Z,18.80
2022-08-17T19:59:22.056Z,18.81
2022-08-17T20:02:03.063Z,18.81
2022-08-17T20:04:42.627Z,18.79
2022-08-17T20:07:20.288Z,18.79
2022-08-17T20:10:03.764Z,18.79
2022-08-17T20:12:38.640Z,18.79
2022-08-17T20:15:22.121Z,18.79
2022-08-17T20:17:50.999Z,18.81
2022-08-17T20:20:38.320Z,18.83
2022-08-17T20:23:31.163Z,18.82
2022-08-17T20:26:34.880Z,18.82
2022-08-17T20:29:14.358Z,18.81
2022-08-17T20:31:54.629Z,18.81
2022-08-17T20:34:36.685Z,18.79
2022-08-17T20:37:15.438Z,18.77
2022-08-17T20:40:07.848Z,18.75
2022-08-17T20:42:37.016Z,18.76
2022-08-17T20:45:20.710Z,18.74
2022-08-17T20:48:18.506Z,18.72
2022-08-17T20:50:47.389Z,18.70
2022-08-17T20:53:47.623Z,18.68
2022-08-17T20:56:43.884Z,18.68
2022-08-17T20:59:40.160Z,18.69
2022-08-17T21:02:18.388Z,18.70
2022-08-17T21:04:50.394Z,18.72
2022-08-17T21:07:41.144Z,18.72
2022-08-17T21:10:21.241Z,18.72
2022-08-17T21:13:02.736Z,18.73
2022-08-17T21:15:51.792Z,18.74
2022-08-17T21:18:29.094Z,18.73
2022-08-17T21:21:17.730Z,18.73
2022-08-17T21:24:14.692Z,18.71
2022-08-17T21:27:01.901Z,18.70
2022-08-17T21:29:33.936Z,18.69
2022-08-17T21:32:09.468Z,18.70
2022-08-17T21:34:43.233Z,18.73
2022-08-17T21:37:23.800Z,18.76
2022-08-17T21:39:54.710Z,18.75
2022-08-17T21:42:25.131Z,18.73
2022-08-17T21:44:58.088Z,18.72
2022-08-17T21:47:29.544Z,18.71
2022-08-17T21:50:18.726Z,18.66
2022-08-17T21:52:48.933Z,18.64
2022-08-17T21:55:22.017Z,18.60
2022-08-17T21:57:53.250Z,18.58
2022-08-17T22:00:39.300Z,18.52
2022-08-17T22:03:23.455Z,18.49
2022-08-17T22:05:51.915Z,18.44
2022-08-17T22:08:24.001Z,18.39
2022-08-17T22:11:02.356Z,18.35
2022-08-17T22:13:30.724Z,18.36
2022-08-17T22:16:15.454Z,18.32
2022-08-17T22:18:58.791Z,18.26
2022-08-17T22:21:27.180Z,18.23
2022-08-17T22:24:22.744Z,18.20
2022-08-17T22:27:12.874Z,18.15
2022-08-17T22:29:57.900Z,18.09
2022-08-17T22:32:43.809Z,18.05
2022-08-17T22:35:26.690Z,18.03
2022-08-17T22:37:57.041Z,18.03
2022-08-17T22:40:31.168Z,18.04
2022-08-17T22:43:01.649Z,18.05
2022-08-17T22:45:30.420Z,18.04
2022-08-17T22:48:00.968Z,18.06
2022-08-17T22:50:31.371Z,18.06
2022-08-17T22:53:43.009Z,18.05
2022-08-17T22:56:37.107Z,18.02
2022-08-17T22:59:20.728Z,17.98
2022-08-17T23:02:13.687Z,17.90
2022-08-17T23:04:57.499Z,17.86
2022-08-17T23:07:26.002Z,17.84
2022-08-17T23:09:54.902Z,17.86
2022-08-17T23:12:26.539Z,17.87
2022-08-17T23:15:00.933Z,17.90
2022-08-17T23:17:36.941Z,17.92
2022-08-17T23:20:24.369Z,17.96
2022-08-17T23:23:19.644Z,17.97
2022-08-17T23:25:50.244Z,18.00
2022-08-17T23:28:18.627Z,18.03
2022-08-17T23:30:48.898Z,18.06
2022-08-17T23:33:29.992Z,18.10
2022-08-17T23:36:02.361Z,18.13
2022-08-17T23:38:32.906Z,18.17
2022-08-17T23:41:02.755Z,18.17
2022-08-17T23:43:31.769Z,18.20
2022-08-17T23:46:00.751Z,18.24
2022-08-17T23:48:35.877Z,18.26
2022-08-17T23:51:10.776Z,18.29
2022-08-17T23:53:44.740Z,18.29
2022-08-17T23:56:14.081Z,18.31
2022-08-17T23:58:44.728Z,18.30
